Accueil
METAR-TAF:

METAR-TAF

Aéroports :

Dübendorf, Suisse

latitude: 47-23-55N, longitude: 8-38-53E, altitude: 448 m

Observation

Le bulletin a été fait il y a 44 minutes, à 00:20 UTC
Vent 4 kt de sud, variant entre sud-est et sud/sud-ouest
Température 13°C
Humidité 94%
Pression 1017 hPa
Visibilité 10 km ou plus
Quelques nuages à une hauteur de 8100 ft
Nuages épars à une hauteur de 11000 ft
pluie faible

METAR: LSMD 040020Z AUTO 17004KT 140V210 9999NDV -RA FEW081 SCT110 13/12 Q1017 RMK

Heure: 03:04 (01:04 UTC)


TAF: absent

Observations et prévisions météorologiques de plus de 4000 aéroports (messages METAR et TAF).

Les stations disponibles sont représentées par des disques jaunes et rouges sur la carte.

Passer la souris dessus pour voir le nom de la station.

Cliquer dessus pour voir les observations et prévisions météorologiques.

Pour changer de carte: cliquez sur les boutons verts avec une croix noire pour zoomer, sur le bouton vert avec un tiret pour effectuer un zoom arrière, ou sur les flèches vertes pour les cartes adjacentes.


METAR-TAF: